createdAt,value
2022-10-10T00:00:18.593Z,8.30
2022-10-10T00:02:52.194Z,8.20
2022-10-10T00:05:25.381Z,8.10
2022-10-10T00:07:55.489Z,8.00
2022-10-10T00:10:25.777Z,8.00
2022-10-10T00:13:00.666Z,8.00
2022-10-10T00:15:31.980Z,8.00
2022-10-10T00:18:02.088Z,8.00
2022-10-10T00:20:32.268Z,8.00
2022-10-10T00:23:12.070Z,8.00
2022-10-10T00:25:42.292Z,8.10
2022-10-10T00:28:15.265Z,8.10
2022-10-10T00:30:49.563Z,8.10
2022-10-10T00:33:19.776Z,8.00
2022-10-10T00:35:50.857Z,8.00
2022-10-10T00:38:21.049Z,8.00
2022-10-10T00:41:01.411Z,7.90
2022-10-10T00:43:39.598Z,7.90
2022-10-10T00:46:13.561Z,7.80
2022-10-10T00:48:49.503Z,7.80
2022-10-10T00:51:25.704Z,7.90
2022-10-10T00:54:01.225Z,7.90
2022-10-10T00:56:37.409Z,7.90
2022-10-10T00:59:13.024Z,7.90
2022-10-10T01:01:44.475Z,7.90
2022-10-10T01:04:42.951Z,7.90
2022-10-10T01:07:25.556Z,8.10
2022-10-10T01:10:04.106Z,8.20
2022-10-10T01:12:55.230Z,8.40
2022-10-10T01:15:45.215Z,8.70
2022-10-10T01:18:27.888Z,8.90
2022-10-10T01:21:23.202Z,9.10
2022-10-10T01:24:53.812Z,9.30
2022-10-10T01:27:46.189Z,9.50
2022-10-10T01:30:24.128Z,9.70
2022-10-10T01:33:09.566Z,9.80
2022-10-10T01:35:56.292Z,9.80
2022-10-10T01:38:41.780Z,9.80
2022-10-10T01:41:19.754Z,9.80
2022-10-10T01:43:57.259Z,9.90
2022-10-10T01:46:29.974Z,9.80
2022-10-10T01:49:07.038Z,9.70
2022-10-10T01:52:08.083Z,9.60
2022-10-10T01:54:53.472Z,9.50
2022-10-10T01:57:38.189Z,9.40
2022-10-10T02:00:15.535Z,9.40
2022-10-10T02:02:59.628Z,9.40
2022-10-10T02:05:42.074Z,9.30
2022-10-10T02:08:26.491Z,9.20
2022-10-10T02:11:03.143Z,9.20
2022-10-10T02:13:41.367Z,9.30
2022-10-10T02:16:20.831Z,9.30
2022-10-10T02:19:05.166Z,9.40
2022-10-10T02:21:45.319Z,9.30
2022-10-10T02:24:28.452Z,9.30
2022-10-10T02:27:08.739Z,9.40
2022-10-10T02:29:52.296Z,9.40
2022-10-10T02:32:32.622Z,9.50
2022-10-10T02:35:12.579Z,9.40
2022-10-10T02:37:52.801Z,9.40
2022-10-10T02:40:30.046Z,9.40
2022-10-10T02:43:03.863Z,9.30
2022-10-10T02:45:35.668Z,9.40
2022-10-10T02:48:09.350Z,9.40
2022-10-10T02:50:42.164Z,9.40
2022-10-10T02:53:14.941Z,9.40
2022-10-10T02:55:45.080Z,9.40
2022-10-10T02:58:15.158Z,9.40
2022-10-10T03:00:45.344Z,9.40
2022-10-10T03:03:15.599Z,9.30
2022-10-10T03:05:52.050Z,9.30
2022-10-10T03:08:22.196Z,9.20
2022-10-10T03:11:03.369Z,9.20
2022-10-10T03:13:33.493Z,9.20
2022-10-10T03:16:04.437Z,9.10
2022-10-10T03:18:36.809Z,9.10
2022-10-10T03:21:10.304Z,9.10
2022-10-10T03:23:46.556Z,9.10
2022-10-10T03:26:16.692Z,9.10
2022-10-10T03:28:46.873Z,9.10
2022-10-10T03:31:17.124Z,9.00
2022-10-10T03:33:50.326Z,9.00
2022-10-10T03:36:23.878Z,9.10
2022-10-10T03:38:54.045Z,9.10
2022-10-10T03:41:24.155Z,9.10
2022-10-10T03:44:03.296Z,9.10
2022-10-10T03:46:33.527Z,9.00
2022-10-10T03:49:03.730Z,9.00
2022-10-10T03:51:39.470Z,9.00
2022-10-10T03:54:09.764Z,9.00
2022-10-10T03:56:39.876Z,9.00
2022-10-10T03:59:13.220Z,8.90
2022-10-10T04:01:43.396Z,8.90
2022-10-10T04:04:13.813Z,8.90
2022-10-10T04:06:46.479Z,8.90
2022-10-10T04:09:16.634Z,8.90
2022-10-10T04:11:49.524Z,8.90
2022-10-10T04:14:19.612Z,8.80
2022-10-10T04:16:52.054Z,8.90
2022-10-10T04:19:22.208Z,8.90
2022-10-10T04:22:02.846Z,8.80
2022-10-10T04:24:35.880Z,8.80
2022-10-10T04:27:06.061Z,8.90
2022-10-10T04:29:36.238Z,8.90
2022-10-10T04:32:07.462Z,9.00
2022-10-10T04:34:37.608Z,9.10
2022-10-10T04:37:16.369Z,9.10
2022-10-10T04:39:46.539Z,9.10
2022-10-10T04:42:16.609Z,9.10
2022-10-10T04:44:46.767Z,9.10
2022-10-10T04:47:19.882Z,9.00
2022-10-10T04:49:50.037Z,9.10
2022-10-10T04:52:28.888Z,9.00
2022-10-10T04:54:59.021Z,8.90
2022-10-10T04:57:29.115Z,8.90
2022-10-10T04:59:59.517Z,8.90
2022-10-10T05:02:29.723Z,9.00
2022-10-10T05:04:59.865Z,9.00
2022-10-10T05:07:32.546Z,9.10
2022-10-10T05:10:10.359Z,9.20
2022-10-10T05:12:40.490Z,9.30
2022-10-10T05:15:11.890Z,9.40
2022-10-10T05:17:42.001Z,9.40
2022-10-10T05:20:13.542Z,9.30
2022-10-10T05:22:48.662Z,9.20
2022-10-10T05:25:19.317Z,9.20
2022-10-10T05:27:52.515Z,9.20
2022-10-10T05:30:22.790Z,9.10
2022-10-10T05:32:53.643Z,9.10
2022-10-10T05:35:26.653Z,9.10
2022-10-10T05:37:59.378Z,9.10
2022-10-10T05:40:29.976Z,9.10
2022-10-10T05:43:03.129Z,9.10
2022-10-10T05:45:33.250Z,9.10
2022-10-10T05:48:03.398Z,9.10
2022-10-10T05:50:38.780Z,9.10
2022-10-10T05:53:14.292Z,9.10
2022-10-10T05:55:44.512Z,9.00
2022-10-10T05:58:15.882Z,9.10
2022-10-10T06:00:52.395Z,9.10
2022-10-10T06:03:22.522Z,9.00
2022-10-10T06:05:55.189Z,9.00
2022-10-10T06:08:28.208Z,9.00
2022-10-10T06:11:05.062Z,9.10
2022-10-10T06:13:41.633Z,9.20
2022-10-10T06:16:11.888Z,9.20
2022-10-10T06:18:42.066Z,9.20
2022-10-10T06:21:14.064Z,9.20
2022-10-10T06:23:49.720Z,9.20
2022-10-10T06:26:20.435Z,9.20
2022-10-10T06:29:05.513Z,9.30
2022-10-10T06:31:39.433Z,9.40
2022-10-10T06:34:12.282Z,9.60
2022-10-10T06:36:42.375Z,9.60
2022-10-10T06:39:17.416Z,9.80
2022-10-10T06:41:47.548Z,9.80
2022-10-10T06:44:20.973Z,9.90
2022-10-10T06:46:53.454Z,10.00
2022-10-10T06:49:26.113Z,10.10
2022-10-10T06:51:58.980Z,10.20
2022-10-10T06:54:46.756Z,10.30
2022-10-10T06:57:21.922Z,10.50
2022-10-10T06:59:54.305Z,10.60
2022-10-10T07:02:25.026Z,10.80
2022-10-10T07:04:58.153Z,11.00
2022-10-10T07:07:28.375Z,11.20
2022-10-10T07:10:01.052Z,11.30
2022-10-10T07:12:36.503Z,11.40
2022-10-10T07:15:12.866Z,11.60
2022-10-10T07:17:49.255Z,11.80
2022-10-10T07:20:24.555Z,12.00
2022-10-10T07:22:57.476Z,12.30
2022-10-10T07:25:40.661Z,12.50
2022-10-10T07:28:12.134Z,12.90
2022-10-10T07:30:49.528Z,13.10
2022-10-10T07:33:35.290Z,14.00
2022-10-10T07:36:05.497Z,16.30
2022-10-10T07:38:35.665Z,18.80
2022-10-10T07:41:13.225Z,21.40
2022-10-10T07:43:50.696Z,23.20
2022-10-10T07:46:25.921Z,23.60
2022-10-10T07:48:56.081Z,24.20
2022-10-10T07:51:26.169Z,24.10
2022-10-10T07:53:56.348Z,24.90
2022-10-10T07:56:29.222Z,25.00
2022-10-10T08:01:52.116Z,26.60
2022-10-10T08:04:24.827Z,26.90
2022-10-10T08:06:55.112Z,26.80
2022-10-10T08:09:25.196Z,26.10
2022-10-10T08:11:57.981Z,25.60
2022-10-10T08:14:30.595Z,25.00
2022-10-10T08:17:12.932Z,23.60
2022-10-10T08:19:43.069Z,23.50
2022-10-10T08:22:13.260Z,24.10
2022-10-10T08:24:43.356Z,25.00
2022-10-10T08:27:17.827Z,24.90
2022-10-10T08:29:56.238Z,24.50
2022-10-10T08:32:26.357Z,23.70
2022-10-10T08:34:56.471Z,23.20
2022-10-10T08:37:30.421Z,22.70
2022-10-10T08:40:04.196Z,22.10
2022-10-10T08:42:50.246Z,22.30
2022-10-10T08:45:30.386Z,22.50
2022-10-10T08:48:10.032Z,22.40
2022-10-10T08:50:46.012Z,22.20
2022-10-10T08:53:32.192Z,22.30
2022-10-10T08:56:03.941Z,22.60
2022-10-10T08:58:43.177Z,24.30
2022-10-10T09:01:21.890Z,25.40
2022-10-10T09:03:56.284Z,25.70
2022-10-10T09:06:47.740Z,26.10
2022-10-10T09:09:31.418Z,27.00
2022-10-10T09:12:19.664Z,27.50
2022-10-10T09:15:07.360Z,28.60
2022-10-10T09:17:45.666Z,28.30
2022-10-10T09:20:34.458Z,28.90
2022-10-10T09:23:11.868Z,30.00
2022-10-10T09:25:50.461Z,30.30
2022-10-10T09:28:36.476Z,30.20
2022-10-10T09:31:17.604Z,29.20
2022-10-10T09:33:56.381Z,28.80
2022-10-10T09:36:34.158Z,29.00
2022-10-10T09:39:15.769Z,28.80
2022-10-10T09:41:54.050Z,29.20
2022-10-10T09:44:25.622Z,29.10
2022-10-10T09:47:15.199Z,29.40
2022-10-10T09:49:46.341Z,29.00
2022-10-10T09:52:29.203Z,28.80
2022-10-10T09:55:03.932Z,27.40
2022-10-10T09:57:41.989Z,27.70
2022-10-10T10:00:35.357Z,28.70
2022-10-10T10:03:21.159Z,28.00
2022-10-10T10:06:03.876Z,28.10
2022-10-10T10:08:37.429Z,28.00
2022-10-10T10:11:09.394Z,27.70
2022-10-10T10:13:40.820Z,27.40
2022-10-10T10:16:17.388Z,27.50
2022-10-10T10:18:51.041Z,27.80
2022-10-10T10:21:26.261Z,27.00
2022-10-10T10:24:00.617Z,27.00
2022-10-10T10:26:48.627Z,27.10
2022-10-10T10:29:36.521Z,26.10
2022-10-10T10:32:26.361Z,24.40
2022-10-10T10:35:27.159Z,23.60
2022-10-10T10:38:31.163Z,24.50
2022-10-10T10:41:12.657Z,24.40
2022-10-10T10:44:01.058Z,23.90
2022-10-10T10:46:48.979Z,24.10
2022-10-10T10:49:38.424Z,24.30
2022-10-10T10:52:40.301Z,24.00
2022-10-10T10:55:30.704Z,23.40
2022-10-10T10:59:16.097Z,23.40
2022-10-10T11:02:02.453Z,24.00
2022-10-10T11:05:23.135Z,24.20
2022-10-10T11:08:17.645Z,23.90
2022-10-10T11:10:58.206Z,23.30
2022-10-10T11:13:38.248Z,23.50
2022-10-10T11:16:46.811Z,23.30
2022-10-10T11:19:30.302Z,23.00
2022-10-10T11:22:08.929Z,23.50
2022-10-10T11:24:49.232Z,24.30
2022-10-10T11:27:26.101Z,24.70
2022-10-10T11:30:15.203Z,24.90
2022-10-10T11:32:54.607Z,24.50
2022-10-10T11:35:40.851Z,24.00
2022-10-10T11:38:23.317Z,23.60
2022-10-10T11:41:05.494Z,23.50
2022-10-10T11:43:48.290Z,23.80
2022-10-10T11:46:33.037Z,24.40
2022-10-10T11:49:15.662Z,24.40
2022-10-10T11:52:32.331Z,24.80
2022-10-10T11:55:15.580Z,25.00
2022-10-10T11:58:00.276Z,24.70
2022-10-10T12:00:32.598Z,23.90
2022-10-10T12:03:03.486Z,23.40
2022-10-10T12:05:38.900Z,23.00
2022-10-10T12:08:22.991Z,22.60
2022-10-10T12:10:59.681Z,22.50
2022-10-10T12:13:45.843Z,22.70
2022-10-10T12:16:28.221Z,22.60
2022-10-10T12:19:07.292Z,22.50
2022-10-10T12:22:00.766Z,22.60
2022-10-10T12:24:33.757Z,23.10
2022-10-10T12:27:46.435Z,23.10
2022-10-10T12:30:29.106Z,23.10
2022-10-10T12:33:02.273Z,23.00
2022-10-10T12:35:42.781Z,22.70
2022-10-10T12:38:28.884Z,22.40
2022-10-10T12:41:15.486Z,22.20
2022-10-10T12:43:55.314Z,22.40
2022-10-10T12:46:37.638Z,22.50
2022-10-10T12:49:25.252Z,22.50
2022-10-10T12:52:10.380Z,22.40
2022-10-10T12:54:48.016Z,22.40
2022-10-10T12:57:34.585Z,22.40
2022-10-10T13:00:17.146Z,22.30
2022-10-10T13:02:55.945Z,22.30
2022-10-10T13:05:35.093Z,22.30
2022-10-10T13:08:13.488Z,22.30
2022-10-10T13:10:46.652Z,22.20
2022-10-10T13:13:22.626Z,22.20
2022-10-10T13:16:01.278Z,22.10
2022-10-10T13:18:44.594Z,22.30
2022-10-10T13:21:18.030Z,22.30
2022-10-10T13:26:51.396Z,22.30
2022-10-10T13:29:29.885Z,22.20
2022-10-10T13:32:06.795Z,22.20
2022-10-10T13:34:45.846Z,22.00
2022-10-10T13:37:20.154Z,22.00
2022-10-10T13:39:54.464Z,21.90
2022-10-10T13:42:35.843Z,21.90
2022-10-10T13:45:48.049Z,22.00
2022-10-10T13:48:39.963Z,21.80
2022-10-10T13:51:16.031Z,21.90
2022-10-10T13:53:57.015Z,22.20
2022-10-10T13:56:34.062Z,22.20
2022-10-10T13:59:14.658Z,22.50
2022-10-10T14:01:57.804Z,22.50
2022-10-10T14:04:38.382Z,22.40
2022-10-10T14:07:18.665Z,22.30
2022-10-10T14:09:56.662Z,22.10
2022-10-10T14:12:49.472Z,22.10
2022-10-10T14:15:40.254Z,21.90
2022-10-10T14:18:20.088Z,21.80
2022-10-10T14:20:53.398Z,22.00
2022-10-10T14:23:26.488Z,22.00
2022-10-10T14:26:03.841Z,22.10
2022-10-10T14:28:36.494Z,22.10
2022-10-10T14:31:07.210Z,21.90
2022-10-10T14:33:37.402Z,21.70
2022-10-10T14:36:09.031Z,21.50
2022-10-10T14:38:48.205Z,21.40
2022-10-10T14:41:18.825Z,21.30
2022-10-10T14:43:52.011Z,21.10
2022-10-10T14:46:25.072Z,21.10
2022-10-10T14:48:55.817Z,21.00
2022-10-10T14:51:33.077Z,21.00
2022-10-10T14:54:14.042Z,21.10
2022-10-10T14:57:08.795Z,21.10
2022-10-10T14:59:47.543Z,20.90
2022-10-10T15:02:25.573Z,20.80
2022-10-10T15:04:59.057Z,20.70
2022-10-10T15:07:29.920Z,20.70
2022-10-10T15:13:07.006Z,20.50
2022-10-10T15:15:38.080Z,20.40
2022-10-10T15:18:25.722Z,20.20
2022-10-10T15:21:03.374Z,20.10
2022-10-10T15:23:33.895Z,20.00
2022-10-10T15:26:08.093Z,19.90
2022-10-10T15:28:38.377Z,19.80
2022-10-10T15:31:09.473Z,19.80
2022-10-10T15:33:39.605Z,19.60
2022-10-10T15:36:19.444Z,19.50
2022-10-10T15:38:55.808Z,19.40
2022-10-10T15:41:32.816Z,19.30
2022-10-10T15:44:03.181Z,19.20
2022-10-10T15:46:34.248Z,19.00
2022-10-10T15:49:05.352Z,19.00
2022-10-10T15:51:35.438Z,18.80
2022-10-10T15:54:08.840Z,18.60
2022-10-10T15:56:42.296Z,18.50
2022-10-10T15:59:14.385Z,18.40
2022-10-10T16:01:44.639Z,18.30
2022-10-10T16:04:15.634Z,18.20
2022-10-10T16:06:54.635Z,18.10
2022-10-10T16:09:41.536Z,18.10
2022-10-10T16:12:14.349Z,18.10
2022-10-10T16:14:44.987Z,18.00
2022-10-10T16:17:18.404Z,18.00
2022-10-10T16:19:54.168Z,17.90
2022-10-10T16:22:24.611Z,17.90
2022-10-10T16:27:49.736Z,17.70
2022-10-10T16:30:20.518Z,17.60
2022-10-10T16:32:51.262Z,17.50
2022-10-10T16:35:21.484Z,17.50
2022-10-10T16:37:51.622Z,17.40
2022-10-10T16:40:24.666Z,17.40
2022-10-10T16:43:10.973Z,17.30
2022-10-10T16:45:46.147Z,17.30
2022-10-10T16:48:16.837Z,17.30
2022-10-10T16:50:59.441Z,17.30
2022-10-10T16:53:30.108Z,17.30
2022-10-10T16:56:02.156Z,17.20
2022-10-10T16:58:39.748Z,17.30
2022-10-10T17:01:12.081Z,17.20
2022-10-10T17:03:47.287Z,17.20
2022-10-10T17:06:20.469Z,17.20
2022-10-10T17:08:53.598Z,17.20
2022-10-10T17:11:26.200Z,17.20
2022-10-10T17:13:59.001Z,17.00
2022-10-10T17:17:07.091Z,17.00
2022-10-10T17:19:27.095Z,17.00
2022-10-10T17:22:00.326Z,16.90
2022-10-10T17:24:30.628Z,16.90
2022-10-10T17:27:03.514Z,16.80
2022-10-10T17:29:36.848Z,16.80
2022-10-10T17:32:07.861Z,16.80
2022-10-10T17:34:43.965Z,16.90
2022-10-10T17:37:14.429Z,17.00
2022-10-10T17:39:44.699Z,17.00
2022-10-10T17:42:20.290Z,16.90
2022-10-10T17:44:56.202Z,16.80
2022-10-10T17:47:26.914Z,16.70
2022-10-10T17:49:57.268Z,16.60
2022-10-10T17:52:35.740Z,16.50
2022-10-10T17:55:12.669Z,16.50
2022-10-10T17:57:48.344Z,16.50
2022-10-10T18:00:22.196Z,16.50
2022-10-10T18:02:55.722Z,16.50
2022-10-10T18:05:25.864Z,16.50
2022-10-10T18:07:58.548Z,16.40
2022-10-10T18:10:32.848Z,16.40
2022-10-10T18:13:04.664Z,16.30
2022-10-10T18:15:40.368Z,16.30
2022-10-10T18:18:11.170Z,16.30
2022-10-10T18:20:44.944Z,16.40
2022-10-10T18:23:27.381Z,16.50
2022-10-10T18:26:07.271Z,16.40
2022-10-10T18:28:42.546Z,16.40
2022-10-10T18:31:19.789Z,16.40
2022-10-10T18:33:51.107Z,16.30
2022-10-10T18:36:24.216Z,16.30
2022-10-10T18:38:57.356Z,16.30
2022-10-10T18:41:34.440Z,16.20
2022-10-10T18:44:09.688Z,16.20
2022-10-10T18:46:43.184Z,16.20
2022-10-10T18:49:17.683Z,16.10
2022-10-10T18:51:48.338Z,16.20
2022-10-10T18:54:21.381Z,16.30
2022-10-10T18:56:52.008Z,16.20
2022-10-10T18:59:24.228Z,16.20
2022-10-10T19:01:57.172Z,16.20
2022-10-10T19:04:27.895Z,16.20
2022-10-10T19:06:58.381Z,16.10
2022-10-10T19:09:34.255Z,16.10
2022-10-10T19:12:10.678Z,16.10
2022-10-10T19:14:41.718Z,16.10
2022-10-10T19:17:14.714Z,16.00
2022-10-10T19:19:53.524Z,15.90
2022-10-10T19:22:26.738Z,15.90
2022-10-10T19:24:57.112Z,15.80
2022-10-10T19:27:30.161Z,15.80
2022-10-10T19:30:00.435Z,15.80
2022-10-10T19:32:35.943Z,15.70
2022-10-10T19:35:12.353Z,15.60
2022-10-10T19:37:44.888Z,15.50
2022-10-10T19:40:15.616Z,15.40
2022-10-10T19:42:48.815Z,15.30
2022-10-10T19:45:18.986Z,15.20
2022-10-10T19:47:51.896Z,15.20
2022-10-10T19:50:22.124Z,14.90
2022-10-10T19:52:52.401Z,14.70
2022-10-10T19:55:22.562Z,14.60
2022-10-10T19:57:52.869Z,14.60
2022-10-10T20:00:23.169Z,14.50
2022-10-10T20:02:55.949Z,14.50
2022-10-10T20:05:29.213Z,14.50
2022-10-10T20:07:59.535Z,14.50
2022-10-10T20:10:36.391Z,14.60
2022-10-10T20:13:07.518Z,14.60
2022-10-10T20:15:37.720Z,14.60
2022-10-10T20:18:13.137Z,14.50
2022-10-10T20:20:54.468Z,14.50
2022-10-10T20:23:28.084Z,14.40
2022-10-10T20:25:58.344Z,14.30
2022-10-10T20:28:33.395Z,14.30
2022-10-10T20:31:03.616Z,14.30
2022-10-10T20:33:38.752Z,14.20
2022-10-10T20:36:09.798Z,14.30
2022-10-10T20:38:43.561Z,14.20
2022-10-10T20:41:14.072Z,14.10
2022-10-10T20:43:44.592Z,14.00
2022-10-10T20:46:18.767Z,14.10
2022-10-10T20:48:56.008Z,14.00
2022-10-10T20:51:28.651Z,14.00
2022-10-10T20:54:02.605Z,13.90
2022-10-10T20:56:37.810Z,14.00
2022-10-10T20:59:08.265Z,14.20
2022-10-10T21:01:52.465Z,14.30
2022-10-10T21:04:27.828Z,14.20
2022-10-10T21:07:03.444Z,14.20
2022-10-10T21:09:40.983Z,14.20
2022-10-10T21:12:11.399Z,14.10
2022-10-10T21:14:41.841Z,14.00
2022-10-10T21:17:17.918Z,13.90
2022-10-10T21:19:51.032Z,13.90
2022-10-10T21:22:27.342Z,14.10
2022-10-10T21:24:59.886Z,14.20
2022-10-10T21:27:30.412Z,14.10
2022-10-10T21:30:00.887Z,14.00
2022-10-10T21:32:30.968Z,14.00
2022-10-10T21:35:03.707Z,13.90
2022-10-10T21:37:34.181Z,13.90
2022-10-10T21:40:04.327Z,13.80
2022-10-10T21:42:37.439Z,13.80
2022-10-10T21:45:11.780Z,13.80
2022-10-10T21:47:45.051Z,13.80
2022-10-10T21:50:18.305Z,13.70
2022-10-10T21:52:48.678Z,13.60
2022-10-10T21:55:19.565Z,13.60
2022-10-10T21:57:50.014Z,13.60
2022-10-10T22:00:21.485Z,13.60
2022-10-10T22:02:51.783Z,13.60
2022-10-10T22:05:24.566Z,13.60
2022-10-10T22:07:54.799Z,13.60
2022-10-10T22:10:26.053Z,13.60
2022-10-10T22:12:57.289Z,13.60
2022-10-10T22:15:27.648Z,13.50
2022-10-10T22:17:58.514Z,13.60
2022-10-10T22:20:31.218Z,13.50
2022-10-10T22:23:01.368Z,13.50
2022-10-10T22:25:31.533Z,13.40
2022-10-10T22:28:06.055Z,13.20
2022-10-10T22:30:37.036Z,13.10
2022-10-10T22:33:07.459Z,13.00
2022-10-10T22:35:40.638Z,12.90
2022-10-10T22:38:10.876Z,12.90
2022-10-10T22:40:41.252Z,12.80
2022-10-10T22:43:11.431Z,12.60
2022-10-10T22:45:41.914Z,12.40
2022-10-10T22:48:14.774Z,12.30
2022-10-10T22:50:47.605Z,12.20
2022-10-10T22:53:17.887Z,12.10
2022-10-10T22:55:48.281Z,12.00
2022-10-10T22:58:20.637Z,12.00
2022-10-10T23:00:52.896Z,11.90
2022-10-10T23:03:23.390Z,11.90
2022-10-10T23:05:56.649Z,11.80
2022-10-10T23:08:27.084Z,11.70
2022-10-10T23:10:57.797Z,11.60
2022-10-10T23:13:28.761Z,11.50
2022-10-10T23:15:59.616Z,11.40
2022-10-10T23:18:32.288Z,11.40
2022-10-10T23:21:05.132Z,11.40
2022-10-10T23:23:35.378Z,11.30
2022-10-10T23:26:09.461Z,11.20
2022-10-10T23:28:40.016Z,11.10
2022-10-10T23:31:14.443Z,11.00
2022-10-10T23:33:47.841Z,11.00
2022-10-10T23:36:20.757Z,10.90
2022-10-10T23:38:51.297Z,10.90
2022-10-10T23:41:21.824Z,10.80
2022-10-10T23:43:52.297Z,10.80
2022-10-10T23:46:22.865Z,10.70
2022-10-10T23:48:53.117Z,10.70
2022-10-10T23:51:29.656Z,10.60
2022-10-10T23:53:59.951Z,10.60
2022-10-10T23:56:30.489Z,10.60
2022-10-10T23:59:00.800Z,10.60
